»·PEaware :: DFGCW KELN-KGEG

DFGCW :: KELN-KGEG

FLIGHT INFORMATION

Flight Status: Arrived
Operator: Unknown
More flights by this operator :: More flights under this callsign
Pilot: Klaus A. (15485)
Aircraft: PILATUS PC-12 EAGLE
(PC12)
More flights by this aircraft type
Origin: KELN Bowers
United States
Destination: KGEG Spokane Intl
United States
More flights between these airports :: More routes between these airports
Route: ELN V2 MWH ZOOMR1
File this flight plan on PilotEdge
Remarks: PBN / D2 DOF / 180714 REG / DFGCW PER / B RMK / TCAS SIMBRIEF
Altitude:
(Current/Filed)
17,000ft
Speed:
(Current/Filed)
276kts
Departed: 14-Jul-18 08:32 AM
Arrived: 14-Jul-18 09:27 AM
Distance/Time
Traveled:
127nm/0:55
Distance/Time
To Go:
Arrived

Flight Plot

Page will automatically refresh every two minutes.

Flight plan parsing failed; only flown route is shown


Map Options




Map Legend


Flown Route
Filed Route
Departure Airport
Arrival Airport
Navaid (VOR, NDB)
Fix

Horizontal Profiles

Position Reports

Time Latitude Longitude Heading Altitude Ground
Speed
14-Jul-18 08:10 47.029319 -120.532293 0 1768ft 0kts
14-Jul-18 08:11 47.029319 -120.532293 211 1768ft 0kts
14-Jul-18 08:12 47.029319 -120.532293 211 1768ft 0kts
14-Jul-18 08:13 47.029319 -120.532293 211 1768ft 0kts
14-Jul-18 08:14 47.029319 -120.532293 211 1768ft 0kts
14-Jul-18 08:15 47.029319 -120.532293 211 1768ft 0kts
14-Jul-18 08:16 47.029319 -120.532293 211 1768ft 0kts
14-Jul-18 08:17 47.029319 -120.532293 211 1768ft 0kts
14-Jul-18 08:18 47.029319 -120.532293 211 1768ft 0kts
14-Jul-18 08:19 47.029319 -120.532293 211 1768ft 0kts
14-Jul-18 08:20 47.029319 -120.532293 211 1768ft 0kts
14-Jul-18 08:21 47.029319 -120.532293 211 1768ft 0kts
14-Jul-18 08:22 47.029319 -120.532293 211 1768ft 0kts
14-Jul-18 08:23 47.029319 -120.532293 211 1768ft 0kts
14-Jul-18 08:24 47.029319 -120.532293 211 1768ft 0kts
14-Jul-18 08:25 47.029292 -120.532195 44 1768ft 0kts
14-Jul-18 08:26 47.030282 -120.528687 86 1769ft 17kts
14-Jul-18 08:27 47.030800 -120.521596 56 1769ft 3kts
14-Jul-18 08:28 47.030803 -120.521590 56 1768ft 0kts
14-Jul-18 08:29 47.030803 -120.521590 56 1768ft 0kts
14-Jul-18 08:30 47.030803 -120.521590 56 1768ft 0kts
14-Jul-18 08:31 47.030803 -120.521590 56 1768ft 0kts
14-Jul-18 08:32 47.030841 -120.521504 53 1769ft 3kts
14-Jul-18 08:33 47.031655 -120.532214 266 1874ft 108kts
14-Jul-18 08:34 47.016927 -120.543289 67 3737ft 154kts
14-Jul-18 08:35 47.027213 -120.498781 105 5519ft 163kts
14-Jul-18 08:36 47.017614 -120.433771 159 7517ft 156kts
14-Jul-18 08:37 47.010785 -120.483915 278 9482ft 149kts
14-Jul-18 08:38 47.037317 -120.484464 102 11254ft 176kts
14-Jul-18 08:39 47.031518 -120.428555 69 12790ft 173kts
14-Jul-18 08:40 47.042738 -120.368003 76 13675ft 197kts
14-Jul-18 08:41 47.053354 -120.289682 72 14911ft 202kts
14-Jul-18 08:42 47.065741 -120.209931 72 16174ft 202kts
14-Jul-18 08:43 47.079402 -120.129458 73 17500ft 205kts
14-Jul-18 08:44 47.093153 -120.046448 73 18381ft 228kts
14-Jul-18 08:45 47.109941 -119.944322 73 17995ft 276kts
14-Jul-18 08:54 47.294666 -118.929379 69 15702ft 276kts
14-Jul-18 08:55 47.317490 -118.822587 69 14215ft 273kts
14-Jul-18 08:56 47.340146 -118.716049 69 12719ft 272kts
14-Jul-18 08:57 47.362557 -118.610147 70 11243ft 271kts
14-Jul-18 08:58 47.384802 -118.504408 71 9761ft 269kts
14-Jul-18 08:59 47.406718 -118.399589 70 8277ft 264kts
14-Jul-18 09:00 47.427349 -118.300469 70 7009ft 254kts
14-Jul-18 09:01 47.437845 -118.203369 89 6995ft 234kts
14-Jul-18 09:02 47.436917 -118.108131 89 6995ft 231kts
14-Jul-18 09:03 47.435831 -118.011808 89 6997ft 236kts
14-Jul-18 09:04 47.434633 -117.913072 89 6999ft 245kts
14-Jul-18 09:05 47.433313 -117.811389 89 6997ft 249kts
14-Jul-18 09:06 47.431874 -117.708330 88 6998ft 251kts
14-Jul-18 09:07 47.430358 -117.605225 89 6997ft 251kts
14-Jul-18 09:08 47.428750 -117.502595 89 6989ft 250kts
14-Jul-18 09:09 47.427055 -117.400343 89 6989ft 249kts
14-Jul-18 09:10 47.425330 -117.301468 89 6978ft 231kts
14-Jul-18 09:11 47.423677 -117.210283 90 6974ft 216kts
14-Jul-18 09:12 47.423485 -117.122561 88 6976ft 211kts
14-Jul-18 09:13 47.422180 -117.036457 84 6875ft 212kts
14-Jul-18 09:14 47.463225 -117.007275 352 6782ft 164kts
14-Jul-18 09:15 47.509874 -117.006830 351 6697ft 166kts
14-Jul-18 09:16 47.555965 -117.006803 351 6702ft 165kts
14-Jul-18 09:17 47.601674 -117.008928 327 6676ft 158kts
14-Jul-18 09:18 47.612557 -117.062332 271 6293ft 147kts
14-Jul-18 09:19 47.614266 -117.126746 283 6095ft 165kts
14-Jul-18 09:20 47.610840 -117.184426 256 6515ft 145kts
14-Jul-18 09:21 47.614558 -117.241741 285 6173ft 139kts
14-Jul-18 09:22 47.614168 -117.297755 279 5205ft 133kts
14-Jul-18 09:23 47.615243 -117.350006 268 4650ft 127kts
14-Jul-18 09:24 47.616395 -117.394107 272 4094ft 132kts
14-Jul-18 09:25 47.616182 -117.449218 266 3399ft 140kts
14-Jul-18 09:26 47.616799 -117.506991 274 2637ft 128kts
14-Jul-18 09:27 47.624971 -117.530979 127 2389ft 55kts
14-Jul-18 09:28 47.623938 -117.530814 286 2389ft 0kts
14-Jul-18 09:29 47.623938 -117.530815 286 2390ft 0kts
14-Jul-18 09:30 47.626014 -117.530179 46 2390ft 14kts
14-Jul-18 09:31 47.628046 -117.528993 319 2389ft 0kts
14-Jul-18 09:32 47.628046 -117.528993 319 2389ft 0kts
14-Jul-18 09:33 47.628046 -117.528993 319 2389ft 0kts
14-Jul-18 09:34 47.628046 -117.528993 319 2389ft 0kts

Navigation Log

Ident Type
Flight plan parsing failed, navigation log unavailable